sensor_id;sensor_type;location;lat;lon;timestamp;P1;durP1;ratioP1;P2;durP2;ratioP2
16326;SDS011;34812;49.846;9.610;2023-08-30T00:02:30;1.30;;;1.23;;
16326;SDS011;34812;49.846;9.610;2023-08-30T00:07:32;1.40;;;1.30;;
16326;SDS011;34812;49.846;9.610;2023-08-30T00:12:36;1.47;;;1.37;;
16326;SDS011;34812;49.846;9.610;2023-08-30T00:17:38;1.70;;;1.60;;
16326;SDS011;34812;49.846;9.610;2023-08-30T00:22:40;5.53;;;2.20;;
16326;SDS011;34812;49.846;9.610;2023-08-30T00:27:44;1.57;;;1.47;;
16326;SDS011;34812;49.846;9.610;2023-08-30T00:32:46;2.07;;;1.97;;
16326;SDS011;34812;49.846;9.610;2023-08-30T00:37:48;1.50;;;1.40;;
16326;SDS011;34812;49.846;9.610;2023-08-30T00:42:51;3.80;;;1.60;;
16326;SDS011;34812;49.846;9.610;2023-08-30T00:47:54;4.50;;;2.40;;
16326;SDS011;34812;49.846;9.610;2023-08-30T00:52:56;3.13;;;2.83;;
16326;SDS011;34812;49.846;9.610;2023-08-30T00:57:59;4.33;;;2.37;;
16326;SDS011;34812;49.846;9.610;2023-08-30T01:03:02;2.87;;;2.57;;
16326;SDS011;34812;49.846;9.610;2023-08-30T01:08:05;6.80;;;3.37;;
16326;SDS011;34812;49.846;9.610;2023-08-30T01:13:09;8.40;;;4.27;;
16326;SDS011;34812;49.846;9.610;2023-08-30T01:18:13;7.97;;;3.93;;
16326;SDS011;34812;49.846;9.610;2023-08-30T01:23:20;6.07;;;4.53;;
16326;SDS011;34812;49.846;9.610;2023-08-30T01:28:26;5.90;;;4.80;;
16326;SDS011;34812;49.846;9.610;2023-08-30T01:33:31;22.43;;;6.07;;
16326;SDS011;34812;49.846;9.610;2023-08-30T01:38:34;10.33;;;4.83;;
16326;SDS011;34812;49.846;9.610;2023-08-30T01:43:38;8.40;;;4.80;;
16326;SDS011;34812;49.846;9.610;2023-08-30T01:48:41;8.67;;;5.17;;
16326;SDS011;34812;49.846;9.610;2023-08-30T01:53:44;9.10;;;5.17;;
16326;SDS011;34812;49.846;9.610;2023-08-30T01:58:49;13.53;;;4.93;;
16326;SDS011;34812;49.846;9.610;2023-08-30T02:03:51;7.67;;;5.37;;
16326;SDS011;34812;49.846;9.610;2023-08-30T02:08:55;19.43;;;5.27;;
16326;SDS011;34812;49.846;9.610;2023-08-30T02:14:01;9.33;;;5.27;;
16326;SDS011;34812;49.846;9.610;2023-08-30T02:19:06;10.37;;;4.87;;
16326;SDS011;34812;49.846;9.610;2023-08-30T02:24:09;17.00;;;5.73;;
16326;SDS011;34812;49.846;9.610;2023-08-30T02:29:12;15.87;;;5.73;;
16326;SDS011;34812;49.846;9.610;2023-08-30T02:34:15;13.07;;;4.80;;
16326;SDS011;34812;49.846;9.610;2023-08-30T02:39:17;8.00;;;5.13;;
16326;SDS011;34812;49.846;9.610;2023-08-30T02:44:20;12.17;;;4.87;;
16326;SDS011;34812;49.846;9.610;2023-08-30T02:49:23;13.47;;;5.17;;
16326;SDS011;34812;49.846;9.610;2023-08-30T02:54:25;8.87;;;5.90;;
16326;SDS011;34812;49.846;9.610;2023-08-30T02:59:28;11.97;;;6.70;;
16326;SDS011;34812;49.846;9.610;2023-08-30T03:04:37;7.97;;;6.17;;
16326;SDS011;34812;49.846;9.610;2023-08-30T03:09:39;12.87;;;5.43;;
16326;SDS011;34812;49.846;9.610;2023-08-30T03:14:43;15.60;;;7.00;;
16326;SDS011;34812;49.846;9.610;2023-08-30T03:19:46;9.83;;;5.87;;
16326;SDS011;34812;49.846;9.610;2023-08-30T03:24:48;7.77;;;4.83;;
16326;SDS011;34812;49.846;9.610;2023-08-30T03:29:52;6.70;;;5.50;;
16326;SDS011;34812;49.846;9.610;2023-08-30T03:34:56;6.00;;;4.73;;
16326;SDS011;34812;49.846;9.610;2023-08-30T03:39:58;13.10;;;4.97;;
16326;SDS011;34812;49.846;9.610;2023-08-30T03:45:02;12.00;;;4.20;;
16326;SDS011;34812;49.846;9.610;2023-08-30T03:50:06;8.77;;;3.90;;
16326;SDS011;34812;49.846;9.610;2023-08-30T03:55:09;6.83;;;3.73;;
16326;SDS011;34812;49.846;9.610;2023-08-30T04:00:13;6.23;;;3.93;;
16326;SDS011;34812;49.846;9.610;2023-08-30T04:05:15;31.20;;;4.20;;
16326;SDS011;34812;49.846;9.610;2023-08-30T04:10:17;7.47;;;3.73;;
16326;SDS011;34812;49.846;9.610;2023-08-30T04:15:22;6.40;;;4.77;;
16326;SDS011;34812;49.846;9.610;2023-08-30T04:20:24;7.13;;;4.37;;
16326;SDS011;34812;49.846;9.610;2023-08-30T04:25:26;20.57;;;4.30;;
16326;SDS011;34812;49.846;9.610;2023-08-30T04:30:30;9.67;;;4.33;;
16326;SDS011;34812;49.846;9.610;2023-08-30T04:35:33;13.00;;;4.50;;
16326;SDS011;34812;49.846;9.610;2023-08-30T04:40:35;14.00;;;4.67;;
16326;SDS011;34812;49.846;9.610;2023-08-30T04:45:39;12.53;;;4.23;;
16326;SDS011;34812;49.846;9.610;2023-08-30T04:50:41;10.67;;;5.07;;
16326;SDS011;34812;49.846;9.610;2023-08-30T04:55:43;22.30;;;5.03;;
16326;SDS011;34812;49.846;9.610;2023-08-30T05:00:47;17.00;;;4.80;;
16326;SDS011;34812;49.846;9.610;2023-08-30T05:05:49;10.60;;;4.83;;
16326;SDS011;34812;49.846;9.610;2023-08-30T05:10:53;17.57;;;5.03;;
16326;SDS011;34812;49.846;9.610;2023-08-30T05:15:57;6.93;;;4.30;;
16326;SDS011;34812;49.846;9.610;2023-08-30T05:20:59;13.03;;;4.67;;
16326;SDS011;34812;49.846;9.610;2023-08-30T05:26:04;8.80;;;4.27;;
16326;SDS011;34812;49.846;9.610;2023-08-30T05:31:08;8.17;;;5.13;;
16326;SDS011;34812;49.846;9.610;2023-08-30T05:36:30;14.80;;;5.17;;
16326;SDS011;34812;49.846;9.610;2023-08-30T05:41:45;7.70;;;4.90;;
16326;SDS011;34812;49.846;9.610;2023-08-30T05:46:49;11.47;;;5.37;;
16326;SDS011;34812;49.846;9.610;2023-08-30T05:51:51;10.37;;;5.23;;
16326;SDS011;34812;49.846;9.610;2023-08-30T05:56:54;9.77;;;5.50;;
16326;SDS011;34812;49.846;9.610;2023-08-30T06:01:58;6.77;;;4.10;;
16326;SDS011;34812;49.846;9.610;2023-08-30T06:07:00;8.40;;;4.33;;
16326;SDS011;34812;49.846;9.610;2023-08-30T06:12:03;7.67;;;4.90;;
16326;SDS011;34812;49.846;9.610;2023-08-30T06:17:07;8.00;;;4.90;;
16326;SDS011;34812;49.846;9.610;2023-08-30T06:22:09;8.30;;;4.90;;
16326;SDS011;34812;49.846;9.610;2023-08-30T06:27:11;7.17;;;4.13;;
16326;SDS011;34812;49.846;9.610;2023-08-30T06:32:15;6.93;;;4.97;;
16326;SDS011;34812;49.846;9.610;2023-08-30T06:37:17;7.65;;;4.00;;
16326;SDS011;34812;49.846;9.610;2023-08-30T06:42:19;11.65;;;3.70;;
16326;SDS011;34812;49.846;9.610;2023-08-30T06:47:23;6.35;;;4.20;;
16326;SDS011;34812;49.846;9.610;2023-08-30T06:52:25;18.90;;;4.32;;
16326;SDS011;34812;49.846;9.610;2023-08-30T06:57:27;4.75;;;3.60;;
16326;SDS011;34812;49.846;9.610;2023-08-30T07:02:30;8.93;;;3.90;;
16326;SDS011;34812;49.846;9.610;2023-08-30T07:07:32;4.65;;;3.42;;
16326;SDS011;34812;49.846;9.610;2023-08-30T07:12:34;3.30;;;3.00;;
16326;SDS011;34812;49.846;9.610;2023-08-30T07:17:38;3.78;;;2.97;;
16326;SDS011;34812;49.846;9.610;2023-08-30T07:22:42;3.35;;;2.83;;
16326;SDS011;34812;49.846;9.610;2023-08-30T07:27:44;3.15;;;2.50;;
16326;SDS011;34812;49.846;9.610;2023-08-30T07:32:48;2.55;;;2.33;;
16326;SDS011;34812;49.846;9.610;2023-08-30T07:37:50;4.03;;;2.00;;
16326;SDS011;34812;49.846;9.610;2023-08-30T07:42:52;7.60;;;2.50;;
16326;SDS011;34812;49.846;9.610;2023-08-30T07:47:55;2.78;;;2.42;;
16326;SDS011;34812;49.846;9.610;2023-08-30T07:52:57;3.88;;;2.80;;
16326;SDS011;34812;49.846;9.610;2023-08-30T07:58:00;2.60;;;2.28;;
16326;SDS011;34812;49.846;9.610;2023-08-30T08:03:05;3.67;;;2.88;;
16326;SDS011;34812;49.846;9.610;2023-08-30T08:08:07;4.13;;;2.83;;
16326;SDS011;34812;49.846;9.610;2023-08-30T08:13:11;5.93;;;2.63;;
16326;SDS011;34812;49.846;9.610;2023-08-30T08:18:15;3.92;;;3.08;;
16326;SDS011;34812;49.846;9.610;2023-08-30T08:23:17;3.67;;;2.97;;
16326;SDS011;34812;49.846;9.610;2023-08-30T08:28:19;3.58;;;2.97;;
16326;SDS011;34812;49.846;9.610;2023-08-30T08:33:22;3.35;;;2.53;;
16326;SDS011;34812;49.846;9.610;2023-08-30T08:38:25;3.35;;;2.67;;
16326;SDS011;34812;49.846;9.610;2023-08-30T08:43:27;3.47;;;2.90;;
16326;SDS011;34812;49.846;9.610;2023-08-30T08:48:31;3.30;;;2.25;;
16326;SDS011;34812;49.846;9.610;2023-08-30T08:53:33;3.47;;;2.88;;
16326;SDS011;34812;49.846;9.610;2023-08-30T08:58:36;4.35;;;3.00;;
16326;SDS011;34812;49.846;9.610;2023-08-30T09:03:39;3.28;;;2.83;;
16326;SDS011;34812;49.846;9.610;2023-08-30T09:08:42;2.92;;;2.72;;
16326;SDS011;34812;49.846;9.610;2023-08-30T09:13:44;4.05;;;2.97;;
16326;SDS011;34812;49.846;9.610;2023-08-30T09:18:57;2.95;;;2.67;;
16326;SDS011;34812;49.846;9.610;2023-08-30T09:24:00;2.95;;;2.63;;
16326;SDS011;34812;49.846;9.610;2023-08-30T09:29:03;3.65;;;2.85;;
16326;SDS011;34812;49.846;9.610;2023-08-30T09:34:06;4.28;;;3.33;;
16326;SDS011;34812;49.846;9.610;2023-08-30T09:39:09;3.28;;;2.97;;
16326;SDS011;34812;49.846;9.610;2023-08-30T09:44:11;3.38;;;3.08;;
16326;SDS011;34812;49.846;9.610;2023-08-30T09:49:17;3.92;;;3.53;;
16326;SDS011;34812;49.846;9.610;2023-08-30T09:54:20;4.13;;;3.53;;
16326;SDS011;34812;49.846;9.610;2023-08-30T09:59:23;3.50;;;3.20;;
16326;SDS011;34812;49.846;9.610;2023-08-30T10:04:27;4.80;;;3.03;;
16326;SDS011;34812;49.846;9.610;2023-08-30T10:09:30;3.35;;;3.05;;
16326;SDS011;34812;49.846;9.610;2023-08-30T10:14:32;3.05;;;2.75;;
16326;SDS011;34812;49.846;9.610;2023-08-30T10:19:35;4.57;;;3.22;;
16326;SDS011;34812;49.846;9.610;2023-08-30T10:24:39;8.23;;;4.07;;
16326;SDS011;34812;49.846;9.610;2023-08-30T10:29:42;3.72;;;3.40;;
16326;SDS011;34812;49.846;9.610;2023-08-30T10:34:47;4.03;;;3.50;;
16326;SDS011;34812;49.846;9.610;2023-08-30T10:39:49;3.33;;;2.85;;
16326;SDS011;34812;49.846;9.610;2023-08-30T10:44:52;3.25;;;2.72;;
16326;SDS011;34812;49.846;9.610;2023-08-30T10:49:56;3.42;;;2.47;;
16326;SDS011;34812;49.846;9.610;2023-08-30T10:55:04;3.50;;;2.90;;
16326;SDS011;34812;49.846;9.610;2023-08-30T11:00:07;3.38;;;2.88;;
16326;SDS011;34812;49.846;9.610;2023-08-30T11:11:16;3.17;;;2.88;;
16326;SDS011;34812;49.846;9.610;2023-08-30T11:16:21;4.43;;;2.70;;
16326;SDS011;34812;49.846;9.610;2023-08-30T11:21:23;3.67;;;2.90;;
16326;SDS011;34812;49.846;9.610;2023-08-30T11:26:26;3.08;;;2.35;;
16326;SDS011;34812;49.846;9.610;2023-08-30T11:31:28;2.53;;;2.33;;
16326;SDS011;34812;49.846;9.610;2023-08-30T11:36:31;3.67;;;2.92;;
16326;SDS011;34812;49.846;9.610;2023-08-30T11:41:35;2.50;;;2.30;;
16326;SDS011;34812;49.846;9.610;2023-08-30T11:46:40;3.63;;;2.63;;
16326;SDS011;34812;49.846;9.610;2023-08-30T11:51:42;2.90;;;2.35;;
16326;SDS011;34812;49.846;9.610;2023-08-30T11:56:45;3.42;;;2.65;;
16326;SDS011;34812;49.846;9.610;2023-08-30T12:01:51;2.53;;;2.30;;
16326;SDS011;34812;49.846;9.610;2023-08-30T12:06:54;2.00;;;1.80;;
16326;SDS011;34812;49.846;9.610;2023-08-30T12:12:05;2.00;;;1.85;;
16326;SDS011;34812;49.846;9.610;2023-08-30T12:17:08;3.35;;;2.05;;
16326;SDS011;34812;49.846;9.610;2023-08-30T12:22:12;2.10;;;1.90;;
16326;SDS011;34812;49.846;9.610;2023-08-30T12:27:15;1.50;;;1.30;;
16326;SDS011;34812;49.846;9.610;2023-08-30T12:32:17;1.63;;;1.25;;
16326;SDS011;34812;49.846;9.610;2023-08-30T12:37:20;1.15;;;1.05;;
16326;SDS011;34812;49.846;9.610;2023-08-30T12:42:23;1.13;;;0.80;;
16326;SDS011;34812;49.846;9.610;2023-08-30T12:47:26;0.80;;;0.70;;
16326;SDS011;34812;49.846;9.610;2023-08-30T12:52:28;1.23;;;0.80;;
16326;SDS011;34812;49.846;9.610;2023-08-30T12:57:31;0.93;;;0.80;;
16326;SDS011;34812;49.846;9.610;2023-08-30T13:02:33;2.22;;;0.90;;
16326;SDS011;34812;49.846;9.610;2023-08-30T13:07:36;0.85;;;0.80;;
16326;SDS011;34812;49.846;9.610;2023-08-30T13:12:40;1.00;;;0.75;;
16326;SDS011;34812;49.846;9.610;2023-08-30T13:17:42;1.08;;;0.88;;
16326;SDS011;34812;49.846;9.610;2023-08-30T13:22:45;1.15;;;0.95;;
16326;SDS011;34812;49.846;9.610;2023-08-30T13:27:49;0.82;;;0.65;;
16326;SDS011;34812;49.846;9.610;2023-08-30T13:32:51;0.63;;;0.63;;
16326;SDS011;34812;49.846;9.610;2023-08-30T13:37:53;1.27;;;0.80;;
16326;SDS011;34812;49.846;9.610;2023-08-30T13:42:56;1.48;;;0.95;;
16326;SDS011;34812;49.846;9.610;2023-08-30T13:47:58;0.88;;;0.68;;
16326;SDS011;34812;49.846;9.610;2023-08-30T13:53:01;0.60;;;0.60;;
16326;SDS011;34812;49.846;9.610;2023-08-30T13:58:04;1.00;;;0.68;;
16326;SDS011;34812;49.846;9.610;2023-08-30T14:03:06;0.50;;;0.50;;
16326;SDS011;34812;49.846;9.610;2023-08-30T14:08:09;0.70;;;0.70;;
16326;SDS011;34812;49.846;9.610;2023-08-30T14:13:13;1.25;;;0.50;;
16326;SDS011;34812;49.846;9.610;2023-08-30T14:18:15;0.57;;;0.50;;
16326;SDS011;34812;49.846;9.610;2023-08-30T14:23:17;0.82;;;0.82;;
16326;SDS011;34812;49.846;9.610;2023-08-30T14:28:21;0.82;;;0.57;;
16326;SDS011;34812;49.846;9.610;2023-08-30T14:33:23;0.75;;;0.63;;
16326;SDS011;34812;49.846;9.610;2023-08-30T14:38:25;0.80;;;0.55;;
16326;SDS011;34812;49.846;9.610;2023-08-30T14:43:28;0.70;;;0.70;;
16326;SDS011;34812;49.846;9.610;2023-08-30T14:48:30;2.30;;;0.82;;
16326;SDS011;34812;49.846;9.610;2023-08-30T14:53:33;6.07;;;0.90;;
16326;SDS011;34812;49.846;9.610;2023-08-30T14:58:37;0.70;;;0.70;;
16326;SDS011;34812;49.846;9.610;2023-08-30T15:03:39;1.25;;;1.02;;
16326;SDS011;34812;49.846;9.610;2023-08-30T15:08:41;0.70;;;0.70;;
16326;SDS011;34812;49.846;9.610;2023-08-30T15:13:44;4.05;;;0.70;;
16326;SDS011;34812;49.846;9.610;2023-08-30T15:18:46;1.10;;;0.90;;
16326;SDS011;34812;49.846;9.610;2023-08-30T15:23:49;3.58;;;1.10;;
16326;SDS011;34812;49.846;9.610;2023-08-30T15:28:52;1.55;;;0.85;;
16326;SDS011;34812;49.846;9.610;2023-08-30T15:33:54;1.15;;;1.00;;
16326;SDS011;34812;49.846;9.610;2023-08-30T15:38:56;2.15;;;1.35;;
16326;SDS011;34812;49.846;9.610;2023-08-30T15:44:00;2.50;;;1.30;;
16326;SDS011;34812;49.846;9.610;2023-08-30T15:49:02;1.13;;;0.95;;
16326;SDS011;34812;49.846;9.610;2023-08-30T15:54:05;1.55;;;1.20;;
16326;SDS011;34812;49.846;9.610;2023-08-30T15:59:08;1.58;;;1.30;;
16326;SDS011;34812;49.846;9.610;2023-08-30T16:04:10;1.92;;;0.80;;
16326;SDS011;34812;49.846;9.610;2023-08-30T16:09:12;1.02;;;0.88;;
16326;SDS011;34812;49.846;9.610;2023-08-30T16:14:16;1.00;;;0.70;;
16326;SDS011;34812;49.846;9.610;2023-08-30T16:19:18;0.80;;;0.75;;
16326;SDS011;34812;49.846;9.610;2023-08-30T16:24:22;0.88;;;0.85;;
16326;SDS011;34812;49.846;9.610;2023-08-30T16:29:27;2.00;;;1.20;;
16326;SDS011;34812;49.846;9.610;2023-08-30T16:34:29;2.35;;;0.90;;
16326;SDS011;34812;49.846;9.610;2023-08-30T16:39:31;1.05;;;0.82;;
16326;SDS011;34812;49.846;9.610;2023-08-30T16:44:35;1.25;;;0.80;;
16326;SDS011;34812;49.846;9.610;2023-08-30T16:49:37;1.08;;;0.93;;
16326;SDS011;34812;49.846;9.610;2023-08-30T16:54:39;0.90;;;0.90;;
16326;SDS011;34812;49.846;9.610;2023-08-30T16:59:43;1.73;;;1.05;;
16326;SDS011;34812;49.846;9.610;2023-08-30T17:04:45;2.40;;;0.80;;
16326;SDS011;34812;49.846;9.610;2023-08-30T17:09:47;1.35;;;0.90;;
16326;SDS011;34812;49.846;9.610;2023-08-30T17:14:50;2.45;;;1.00;;
16326;SDS011;34812;49.846;9.610;2023-08-30T17:19:52;0.90;;;0.80;;
16326;SDS011;34812;49.846;9.610;2023-08-30T17:24:55;2.67;;;0.93;;
16326;SDS011;34812;49.846;9.610;2023-08-30T17:29:58;1.63;;;1.10;;
16326;SDS011;34812;49.846;9.610;2023-08-30T17:35:00;0.85;;;0.85;;
16326;SDS011;34812;49.846;9.610;2023-08-30T17:40:04;2.72;;;0.80;;
16326;SDS011;34812;49.846;9.610;2023-08-30T17:45:09;2.03;;;1.13;;
16326;SDS011;34812;49.846;9.610;2023-08-30T17:50:11;2.15;;;1.40;;
16326;SDS011;34812;49.846;9.610;2023-08-30T17:55:14;3.65;;;1.33;;
16326;SDS011;34812;49.846;9.610;2023-08-30T18:00:17;2.05;;;1.23;;
16326;SDS011;34812;49.846;9.610;2023-08-30T18:05:20;2.08;;;1.30;;
16326;SDS011;34812;49.846;9.610;2023-08-30T18:10:23;1.27;;;1.17;;
16326;SDS011;34812;49.846;9.610;2023-08-30T18:15:26;6.53;;;1.35;;
16326;SDS011;34812;49.846;9.610;2023-08-30T18:20:28;1.58;;;1.02;;
16326;SDS011;34812;49.846;9.610;2023-08-30T18:25:30;1.10;;;1.00;;
16326;SDS011;34812;49.846;9.610;2023-08-30T18:30:34;5.90;;;1.70;;
16326;SDS011;34812;49.846;9.610;2023-08-30T18:35:36;4.22;;;1.55;;
16326;SDS011;34812;49.846;9.610;2023-08-30T18:40:38;2.45;;;1.80;;
16326;SDS011;34812;49.846;9.610;2023-08-30T18:45:45;4.25;;;1.70;;
16326;SDS011;34812;49.846;9.610;2023-08-30T18:50:47;2.67;;;1.88;;
16326;SDS011;34812;49.846;9.610;2023-08-30T18:55:49;3.80;;;2.05;;
16326;SDS011;34812;49.846;9.610;2023-08-30T19:00:52;1.80;;;1.70;;
16326;SDS011;34812;49.846;9.610;2023-08-30T19:05:54;6.68;;;2.00;;
16326;SDS011;34812;49.846;9.610;2023-08-30T19:10:57;2.50;;;1.77;;
16326;SDS011;34812;49.846;9.610;2023-08-30T19:16:00;3.15;;;1.98;;
16326;SDS011;34812;49.846;9.610;2023-08-30T19:21:02;5.90;;;2.00;;
16326;SDS011;34812;49.846;9.610;2023-08-30T19:26:06;2.30;;;1.83;;
16326;SDS011;34812;49.846;9.610;2023-08-30T19:31:09;2.85;;;1.98;;
16326;SDS011;34812;49.846;9.610;2023-08-30T19:36:11;4.55;;;2.13;;
16326;SDS011;34812;49.846;9.610;2023-08-30T19:41:17;2.08;;;1.88;;
16326;SDS011;34812;49.846;9.610;2023-08-30T19:46:20;5.20;;;1.50;;
16326;SDS011;34812;49.846;9.610;2023-08-30T19:51:23;2.43;;;1.60;;
16326;SDS011;34812;49.846;9.610;2023-08-30T19:56:25;10.90;;;1.57;;
16326;SDS011;34812;49.846;9.610;2023-08-30T20:01:28;1.23;;;1.03;;
16326;SDS011;34812;49.846;9.610;2023-08-30T20:06:30;1.37;;;1.17;;
16326;SDS011;34812;49.846;9.610;2023-08-30T20:11:32;1.47;;;1.10;;
16326;SDS011;34812;49.846;9.610;2023-08-30T20:16:36;2.20;;;0.60;;
16326;SDS011;34812;49.846;9.610;2023-08-30T20:21:38;0.90;;;0.90;;
16326;SDS011;34812;49.846;9.610;2023-08-30T20:26:40;0.90;;;0.90;;
16326;SDS011;34812;49.846;9.610;2023-08-30T20:31:44;1.07;;;0.90;;
16326;SDS011;34812;49.846;9.610;2023-08-30T20:36:47;0.60;;;0.60;;
16326;SDS011;34812;49.846;9.610;2023-08-30T20:41:49;3.57;;;0.90;;
16326;SDS011;34812;49.846;9.610;2023-08-30T20:46:55;0.93;;;0.90;;
16326;SDS011;34812;49.846;9.610;2023-08-30T20:51:57;3.13;;;0.80;;
16326;SDS011;34812;49.846;9.610;2023-08-30T20:57:00;1.20;;;0.80;;
16326;SDS011;34812;49.846;9.610;2023-08-30T21:02:03;1.27;;;1.00;;
16326;SDS011;34812;49.846;9.610;2023-08-30T21:07:06;0.60;;;0.60;;
16326;SDS011;34812;49.846;9.610;2023-08-30T21:12:08;2.33;;;0.87;;
16326;SDS011;34812;49.846;9.610;2023-08-30T21:17:12;0.70;;;0.70;;
16326;SDS011;34812;49.846;9.610;2023-08-30T21:22:14;1.70;;;0.90;;
16326;SDS011;34812;49.846;9.610;2023-08-30T21:27:16;1.00;;;0.80;;
16326;SDS011;34812;49.846;9.610;2023-08-30T21:32:20;1.43;;;1.10;;
16326;SDS011;34812;49.846;9.610;2023-08-30T21:37:22;2.90;;;1.27;;
16326;SDS011;34812;49.846;9.610;2023-08-30T21:42:24;2.37;;;1.17;;
16326;SDS011;34812;49.846;9.610;2023-08-30T21:47:27;1.73;;;1.40;;
16326;SDS011;34812;49.846;9.610;2023-08-30T21:52:29;1.10;;;0.90;;
16326;SDS011;34812;49.846;9.610;2023-08-30T21:57:32;0.80;;;0.80;;
16326;SDS011;34812;49.846;9.610;2023-08-30T22:02:35;0.70;;;0.70;;
16326;SDS011;34812;49.846;9.610;2023-08-30T22:07:37;1.20;;;1.10;;
16326;SDS011;34812;49.846;9.610;2023-08-30T22:12:41;1.43;;;1.00;;
16326;SDS011;34812;49.846;9.610;2023-08-30T22:17:45;1.10;;;1.00;;
16326;SDS011;34812;49.846;9.610;2023-08-30T22:22:47;0.90;;;0.90;;
16326;SDS011;34812;49.846;9.610;2023-08-30T22:27:50;1.20;;;1.10;;
16326;SDS011;34812;49.846;9.610;2023-08-30T22:32:53;1.37;;;1.07;;
16326;SDS011;34812;49.846;9.610;2023-08-30T22:37:56;1.03;;;0.90;;
16326;SDS011;34812;49.846;9.610;2023-08-30T22:42:58;1.50;;;1.27;;
16326;SDS011;34812;49.846;9.610;2023-08-30T22:48:02;2.27;;;1.27;;
16326;SDS011;34812;49.846;9.610;2023-08-30T22:53:04;7.00;;;1.20;;
16326;SDS011;34812;49.846;9.610;2023-08-30T22:58:06;1.30;;;0.97;;
16326;SDS011;34812;49.846;9.610;2023-08-30T23:03:10;1.33;;;1.00;;
16326;SDS011;34812;49.846;9.610;2023-08-30T23:08:12;1.30;;;1.20;;
16326;SDS011;34812;49.846;9.610;2023-08-30T23:13:14;1.87;;;1.57;;
16326;SDS011;34812;49.846;9.610;2023-08-30T23:18:17;3.67;;;1.50;;
16326;SDS011;34812;49.846;9.610;2023-08-30T23:23:20;1.40;;;1.30;;
16326;SDS011;34812;49.846;9.610;2023-08-30T23:28:22;1.50;;;1.37;;
16326;SDS011;34812;49.846;9.610;2023-08-30T23:33:26;1.60;;;1.50;;
16326;SDS011;34812;49.846;9.610;2023-08-30T23:38:29;1.90;;;1.63;;
16326;SDS011;34812;49.846;9.610;2023-08-30T23:43:31;1.50;;;1.40;;
16326;SDS011;34812;49.846;9.610;2023-08-30T23:48:34;1.70;;;1.00;;
16326;SDS011;34812;49.846;9.610;2023-08-30T23:53:36;1.40;;;1.30;;
16326;SDS011;34812;49.846;9.610;2023-08-30T23:58:38;3.70;;;1.43;;
